utilisation pie
utilisation bar
humidity graph
temperature graph
Station id: f3370e for 3 days

start:   stop:  

day time in temp out temp in RH out RH H quota rule action
2020-02-22 00:20:49 6.8 6.1 84 93 106 h 0
2020-02-22 00:51:02 6.7 6.2 84 94 108 m
2
2020-02-22 01:21:14 7.0 6.3 81 94 111 h 0
2020-02-22 01:51:31 6.9 6.3 84 94 108 h 0
2020-02-22 02:22:02 6.8 6.4 85 94 108 m
2
2020-02-22 02:52:20 6.9 6.4 82 94 111 h 0
2020-02-22 03:22:37 6.8 6.3 84 94 108 m
2
2020-02-22 03:52:49 7.1 6.3 81 95 111 h 0
2020-02-22 04:23:01 6.9 6.3 84 95 108 h 0
2020-02-22 04:53:18 6.8 6.3 85 95 108 m
2
2020-02-22 05:23:35 6.9 6.4 83 95 111 h 0
2020-02-22 05:53:52 6.9 6.5 85 94 109 m
2
2020-02-22 06:24:10 7.2 6.5 82 95 111 h 0
2020-02-22 06:54:27 7.0 6.4 84 95 109 m
2
2020-02-22 07:24:44 7.1 6.4 82 95 111 h 0
2020-02-22 07:55:01 7.0 6.4 85 95 108 m
2
2020-02-22 08:25:19 7.3 6.6 81 95 113 h 0
2020-02-22 08:55:36 7.1 6.9 84 94 110 m
2
2020-02-22 09:25:53 7.2 6.9 81 94 114 h 0
2020-02-22 09:56:05 7.1 7.0 85 94 110 m
2
2020-02-22 10:26:22 7.4 7.1 81 93 113 h 0
2020-02-22 10:56:40 7.2 7.1 84 94 111 m
2
2020-02-22 11:26:57 7.3 7.0 81 94 114 h 0
2020-02-22 11:57:14 7.2 7.1 84 94 111 m
2
2020-02-22 12:27:31 7.5 7.2 80 94 116 h 0
2020-02-22 12:57:48 7.3 7.1 83 93 110 h 0
2020-02-22 13:28:00 7.2 6.8 83 92 107 h 0
2020-02-22 13:58:13 7.1 6.6 84 90 104 h 0
2020-02-22 14:28:30 7.2 6.9 83 89 105 h 0
2020-02-22 14:58:47 7.4 7.0 83 87 102 h 0
2020-02-22 15:29:04 7.9 7.2 84 86 99 m
2
2020-02-22 15:59:16 7.8 6.9 80 86 101 h 0
2020-02-22 16:29:34 7.6 6.3 81 85 96 h 0
2020-02-22 16:59:51 7.5 5.9 81 88 98 h 0
2020-02-22 17:30:03 7.3 5.8 78 88 102 h 0
2020-02-22 18:00:17 7.4 5.7 76 88 104 h 0
2020-02-22 18:30:29 7.9 5.6 77 84 94 h 0
2020-02-22 19:00:41 7.9 5.4 78 87 95 h 0
2020-02-22 19:30:53 7.7 5.5 78 87 97 h 0
2020-02-22 20:01:10 7.7 5.5 76 85 97 h 0
2020-02-22 20:31:28 7.8 5.0 76 86 94 t
1
2020-02-22 21:01:45 7.6 5.0 77 85 92 t
1
2020-02-22 21:32:02 7.5 4.7 78 87 93 t
1
2020-02-22 22:02:20 7.2 4.7 78 86 94 t
1
2020-02-22 22:32:37 7.0 4.8 78 85 94 h 0
2020-02-22 23:02:49 6.8 4.0 77 88 95 h 0
2020-02-22 23:33:01 6.7 3.6 78 92 95 h 0
2020-02-23 00:03:22 6.5 4.3 78 89 98 h 0
2020-02-23 00:33:44 6.4 4.8 78 86 99 h 0
2020-02-23 01:04:01 6.3 5.0 79 86 99 h 0
2020-02-23 01:34:13 6.3 4.9 79 85 98 h 0
2020-02-23 02:04:29 6.2 4.9 79 85 99 h 0
2020-02-23 02:34:41 6.1 4.6 79 87 99 h 0
2020-02-23 03:04:58 6.0 4.7 79 87 101 h 0
2020-02-23 03:35:10 6.0 4.7 79 89 104 h 0
2020-02-23 04:05:22 5.9 4.5 79 90 103 h 0
2020-02-23 04:35:34 5.8 4.7 79 89 104 h 0
2020-02-23 05:05:51 5.8 4.5 79 89 103 h 0
2020-02-23 05:36:03 5.7 4.3 79 88 101 h 0
2020-02-23 06:06:32 5.7 4.3 79 88 101 h 0
2020-02-23 06:36:50 5.6 4.2 79 88 101 h 0
2020-02-23 07:07:07 5.5 4.3 80 88 102 h 0
2020-02-23 07:37:19 5.5 4.7 80 88 105 h 0
2020-02-23 08:07:30 5.5 4.9 80 87 105 h 0
2020-02-23 08:37:42 5.5 5.0 80 87 105 h 0
2020-02-23 09:07:58 5.5 5.2 80 87 106 h 0
2020-02-23 09:38:11 5.6 5.3 80 88 107 h 0
2020-02-23 10:08:28 5.7 5.7 81 87 108 h 0
2020-02-23 10:38:40 5.9 5.9 81 86 107 h 0
2020-02-23 11:08:57 5.9 5.8 81 86 105 h 0
2020-02-23 11:39:09 5.9 6.1 81 87 108 h 0
2020-02-23 12:09:21 5.9 5.8 81 86 105 h 0
2020-02-23 12:39:32 5.9 6.0 82 86 106 h 0
2020-02-23 13:09:50 6.0 6.1 82 86 106 h 0
2020-02-23 13:40:01 6.0 6.1 82 84 104 h 0
2020-02-23 14:10:18 5.9 5.5 82 85 101 h 0
2020-02-23 14:40:31 5.9 5.1 82 86 100 h 0
2020-02-23 15:10:48 5.9 5.0 82 88 101 h 0
2020-02-23 15:41:05 5.9 5.0 82 90 104 h 0
2020-02-23 16:11:17 5.9 5.1 82 89 103 h 0
2020-02-23 16:41:35 5.9 5.0 82 88 101 h 0
2020-02-23 17:11:52 5.9 4.7 82 89 100 h 0
2020-02-23 17:42:09 5.8 4.3 82 90 99 h 0
2020-02-23 18:12:27 5.7 4.1 83 90 98 h 0
2020-02-23 18:42:43 5.7 4.2 83 90 98 h 0
2020-02-23 19:13:00 5.6 4.2 83 91 100 h 0
2020-02-23 19:43:17 5.5 4.3 82 90 100 h 0
2020-02-23 20:13:28 5.5 4.1 81 90 101 h 0
2020-02-23 20:43:45 5.4 4.0 81 92 103 h 0
2020-02-23 21:14:02 5.4 4.0 81 92 104 h 0
2020-02-23 21:44:13 5.3 4.3 81 90 104 h 0
2020-02-23 22:14:30 5.3 4.5 82 90 104 h 0
2020-02-23 22:44:47 5.3 4.5 82 90 104 h 0
2020-02-23 23:17:17 5.3 4.9 82 90 106 h 0
2020-02-23 23:47:34 5.3 5.0 82 90 107 h 0
2020-02-24 00:17:46 5.3 5.1 82 89 107 h 0
2020-02-24 00:47:58 5.3 5.0 83 91 108 h 0
2020-02-24 01:18:15 5.3 5.1 83 92 109 h 0
2020-02-24 01:48:33 5.3 5.1 84 92 109 h 0


2020-02-24 02:53:13 CET